sensor_id;sensor_type;location;lat;lon;timestamp;P1;durP1;ratioP1;P2;durP2;ratioP2
26750;SDS011;14345;48.272;25.926;2023-06-05T00:00:04;5.40;;;2.63;;
26750;SDS011;14345;48.272;25.926;2023-06-05T00:02:32;4.75;;;2.65;;
26750;SDS011;14345;48.272;25.926;2023-06-05T00:04:58;4.45;;;2.92;;
26750;SDS011;14345;48.272;25.926;2023-06-05T00:07:24;5.65;;;3.28;;
26750;SDS011;14345;48.272;25.926;2023-06-05T00:09:50;3.97;;;2.83;;
26750;SDS011;14345;48.272;25.926;2023-06-05T00:12:16;5.50;;;2.40;;
26750;SDS011;14345;48.272;25.926;2023-06-05T00:14:42;7.40;;;3.03;;
26750;SDS011;14345;48.272;25.926;2023-06-05T00:17:09;4.22;;;2.50;;
26750;SDS011;14345;48.272;25.926;2023-06-05T00:19:35;5.10;;;2.30;;
26750;SDS011;14345;48.272;25.926;2023-06-05T00:22:01;4.93;;;2.35;;
26750;SDS011;14345;48.272;25.926;2023-06-05T00:24:27;4.75;;;2.45;;
26750;SDS011;14345;48.272;25.926;2023-06-05T00:26:53;6.47;;;2.38;;
26750;SDS011;14345;48.272;25.926;2023-06-05T00:29:19;3.60;;;2.40;;
26750;SDS011;14345;48.272;25.926;2023-06-05T00:31:45;5.82;;;1.90;;
26750;SDS011;14345;48.272;25.926;2023-06-05T00:34:12;2.83;;;2.22;;
26750;SDS011;14345;48.272;25.926;2023-06-05T00:36:39;3.35;;;1.90;;
26750;SDS011;14345;48.272;25.926;2023-06-05T00:39:05;4.10;;;1.88;;
26750;SDS011;14345;48.272;25.926;2023-06-05T00:41:32;3.45;;;1.90;;
26750;SDS011;14345;48.272;25.926;2023-06-05T00:43:58;3.85;;;2.13;;
26750;SDS011;14345;48.272;25.926;2023-06-05T00:46:24;3.55;;;1.83;;
26750;SDS011;14345;48.272;25.926;2023-06-05T00:48:50;4.22;;;1.92;;
26750;SDS011;14345;48.272;25.926;2023-06-05T00:51:16;3.55;;;2.08;;
26750;SDS011;14345;48.272;25.926;2023-06-05T00:53:43;5.15;;;3.28;;
26750;SDS011;14345;48.272;25.926;2023-06-05T00:56:10;5.38;;;3.70;;
26750;SDS011;14345;48.272;25.926;2023-06-05T00:58:36;9.65;;;5.00;;
26750;SDS011;14345;48.272;25.926;2023-06-05T01:01:02;6.47;;;3.85;;
26750;SDS011;14345;48.272;25.926;2023-06-05T01:03:30;3.05;;;2.50;;
26750;SDS011;14345;48.272;25.926;2023-06-05T01:05:59;3.53;;;2.20;;
26750;SDS011;14345;48.272;25.926;2023-06-05T01:08:32;3.03;;;2.08;;
26750;SDS011;14345;48.272;25.926;2023-06-05T01:11:13;2.90;;;2.00;;
26750;SDS011;14345;48.272;25.926;2023-06-05T01:13:42;5.22;;;2.85;;
26750;SDS011;14345;48.272;25.926;2023-06-05T01:16:12;3.83;;;2.00;;
26750;SDS011;14345;48.272;25.926;2023-06-05T01:18:40;6.53;;;3.00;;
26750;SDS011;14345;48.272;25.926;2023-06-05T01:21:11;7.88;;;3.30;;
26750;SDS011;14345;48.272;25.926;2023-06-05T01:23:43;6.32;;;3.08;;
26750;SDS011;14345;48.272;25.926;2023-06-05T01:26:15;7.43;;;3.15;;
26750;SDS011;14345;48.272;25.926;2023-06-05T01:28:44;5.07;;;2.95;;
26750;SDS011;14345;48.272;25.926;2023-06-05T01:31:12;4.18;;;2.58;;
26750;SDS011;14345;48.272;25.926;2023-06-05T01:33:46;5.40;;;2.55;;
26750;SDS011;14345;48.272;25.926;2023-06-05T01:36:15;2.50;;;1.92;;
26750;SDS011;14345;48.272;25.926;2023-06-05T01:38:43;2.80;;;1.90;;
26750;SDS011;14345;48.272;25.926;2023-06-05T01:41:10;7.72;;;3.65;;
26750;SDS011;14345;48.272;25.926;2023-06-05T01:43:36;4.22;;;2.63;;
26750;SDS011;14345;48.272;25.926;2023-06-05T01:46:04;3.65;;;2.35;;
26750;SDS011;14345;48.272;25.926;2023-06-05T01:48:32;9.27;;;5.13;;
26750;SDS011;14345;48.272;25.926;2023-06-05T01:51:01;5.75;;;3.75;;
26750;SDS011;14345;48.272;25.926;2023-06-05T01:53:28;7.50;;;2.60;;
26750;SDS011;14345;48.272;25.926;2023-06-05T01:55:54;2.65;;;2.13;;
26750;SDS011;14345;48.272;25.926;2023-06-05T01:58:24;3.08;;;1.92;;
26750;SDS011;14345;48.272;25.926;2023-06-05T02:00:50;5.55;;;3.17;;
26750;SDS011;14345;48.272;25.926;2023-06-05T02:03:17;6.05;;;3.55;;
26750;SDS011;14345;48.272;25.926;2023-06-05T02:05:43;6.25;;;2.58;;
26750;SDS011;14345;48.272;25.926;2023-06-05T02:08:09;3.35;;;2.20;;
26750;SDS011;14345;48.272;25.926;2023-06-05T02:10:36;6.70;;;2.30;;
26750;SDS011;14345;48.272;25.926;2023-06-05T02:13:05;3.40;;;2.17;;
26750;SDS011;14345;48.272;25.926;2023-06-05T02:15:31;6.07;;;3.10;;
26750;SDS011;14345;48.272;25.926;2023-06-05T02:17:59;6.47;;;3.10;;
26750;SDS011;14345;48.272;25.926;2023-06-05T02:20:25;5.10;;;3.00;;
26750;SDS011;14345;48.272;25.926;2023-06-05T02:22:51;3.65;;;2.33;;
26750;SDS011;14345;48.272;25.926;2023-06-05T02:25:18;5.60;;;2.53;;
26750;SDS011;14345;48.272;25.926;2023-06-05T02:27:44;5.82;;;2.55;;
26750;SDS011;14345;48.272;25.926;2023-06-05T02:30:10;3.80;;;1.75;;
26750;SDS011;14345;48.272;25.926;2023-06-05T02:32:37;3.67;;;1.95;;
26750;SDS011;14345;48.272;25.926;2023-06-05T02:35:07;5.65;;;2.33;;
26750;SDS011;14345;48.272;25.926;2023-06-05T02:37:33;4.80;;;2.40;;
26750;SDS011;14345;48.272;25.926;2023-06-05T02:40:03;4.13;;;2.42;;
26750;SDS011;14345;48.272;25.926;2023-06-05T02:42:30;3.60;;;1.83;;
26750;SDS011;14345;48.272;25.926;2023-06-05T02:44:56;5.72;;;2.50;;
26750;SDS011;14345;48.272;25.926;2023-06-05T02:47:22;3.30;;;1.98;;
26750;SDS011;14345;48.272;25.926;2023-06-05T02:49:48;5.00;;;2.13;;
26750;SDS011;14345;48.272;25.926;2023-06-05T02:52:14;4.10;;;2.63;;
26750;SDS011;14345;48.272;25.926;2023-06-05T02:54:40;7.82;;;3.00;;
26750;SDS011;14345;48.272;25.926;2023-06-05T02:57:06;5.47;;;2.35;;
26750;SDS011;14345;48.272;25.926;2023-06-05T02:59:33;3.83;;;2.40;;
26750;SDS011;14345;48.272;25.926;2023-06-05T03:02:04;4.78;;;2.30;;
26750;SDS011;14345;48.272;25.926;2023-06-05T03:04:31;7.85;;;4.80;;
26750;SDS011;14345;48.272;25.926;2023-06-05T03:06:57;14.82;;;9.27;;
26750;SDS011;14345;48.272;25.926;2023-06-05T03:09:29;11.90;;;7.05;;
26750;SDS011;14345;48.272;25.926;2023-06-05T03:11:55;5.63;;;3.58;;
26750;SDS011;14345;48.272;25.926;2023-06-05T03:14:21;9.45;;;3.72;;
26750;SDS011;14345;48.272;25.926;2023-06-05T03:16:47;9.77;;;5.53;;
26750;SDS011;14345;48.272;25.926;2023-06-05T03:19:13;7.00;;;4.28;;
26750;SDS011;14345;48.272;25.926;2023-06-05T03:21:40;6.82;;;2.72;;
26750;SDS011;14345;48.272;25.926;2023-06-05T03:24:08;3.63;;;1.90;;
26750;SDS011;14345;48.272;25.926;2023-06-05T03:26:38;5.82;;;3.67;;
26750;SDS011;14345;48.272;25.926;2023-06-05T03:29:04;9.85;;;5.40;;
26750;SDS011;14345;48.272;25.926;2023-06-05T03:31:30;9.77;;;4.53;;
26750;SDS011;14345;48.272;25.926;2023-06-05T03:33:56;5.68;;;4.15;;
26750;SDS011;14345;48.272;25.926;2023-06-05T03:36:24;7.13;;;4.82;;
26750;SDS011;14345;48.272;25.926;2023-06-05T03:38:50;18.85;;;8.35;;
26750;SDS011;14345;48.272;25.926;2023-06-05T03:41:16;13.70;;;8.98;;
26750;SDS011;14345;48.272;25.926;2023-06-05T03:43:43;11.50;;;7.60;;
26750;SDS011;14345;48.272;25.926;2023-06-05T03:46:09;11.82;;;6.10;;
26750;SDS011;14345;48.272;25.926;2023-06-05T03:48:44;10.55;;;6.25;;
26750;SDS011;14345;48.272;25.926;2023-06-05T03:51:10;8.45;;;6.32;;
26750;SDS011;14345;48.272;25.926;2023-06-05T03:53:36;7.55;;;4.03;;
26750;SDS011;14345;48.272;25.926;2023-06-05T03:56:08;6.55;;;3.17;;
26750;SDS011;14345;48.272;25.926;2023-06-05T03:58:34;5.63;;;2.90;;
26750;SDS011;14345;48.272;25.926;2023-06-05T04:01:00;5.80;;;2.38;;
26750;SDS011;14345;48.272;25.926;2023-06-05T04:03:26;10.35;;;3.08;;
26750;SDS011;14345;48.272;25.926;2023-06-05T04:05:53;6.45;;;2.40;;
26750;SDS011;14345;48.272;25.926;2023-06-05T04:08:19;7.47;;;2.58;;
26750;SDS011;14345;48.272;25.926;2023-06-05T04:10:45;5.70;;;2.88;;
26750;SDS011;14345;48.272;25.926;2023-06-05T04:13:12;3.92;;;2.70;;
26750;SDS011;14345;48.272;25.926;2023-06-05T04:15:38;4.55;;;2.60;;
26750;SDS011;14345;48.272;25.926;2023-06-05T04:18:04;8.52;;;3.67;;
26750;SDS011;14345;48.272;25.926;2023-06-05T04:20:30;7.00;;;3.60;;
26750;SDS011;14345;48.272;25.926;2023-06-05T04:22:56;5.35;;;3.72;;
26750;SDS011;14345;48.272;25.926;2023-06-05T04:25:22;5.63;;;3.60;;
26750;SDS011;14345;48.272;25.926;2023-06-05T04:27:49;5.57;;;3.25;;
26750;SDS011;14345;48.272;25.926;2023-06-05T04:30:16;6.50;;;3.35;;
26750;SDS011;14345;48.272;25.926;2023-06-05T04:32:42;5.38;;;2.70;;
26750;SDS011;14345;48.272;25.926;2023-06-05T04:35:18;5.32;;;3.00;;
26750;SDS011;14345;48.272;25.926;2023-06-05T04:37:44;4.00;;;3.22;;
26750;SDS011;14345;48.272;25.926;2023-06-05T04:40:11;11.65;;;5.80;;
26750;SDS011;14345;48.272;25.926;2023-06-05T04:42:37;8.63;;;6.05;;
26750;SDS011;14345;48.272;25.926;2023-06-05T04:45:04;5.30;;;3.50;;
26750;SDS011;14345;48.272;25.926;2023-06-05T04:47:31;5.63;;;3.20;;
26750;SDS011;14345;48.272;25.926;2023-06-05T04:49:58;4.07;;;2.90;;
26750;SDS011;14345;48.272;25.926;2023-06-05T04:52:24;6.88;;;2.90;;
26750;SDS011;14345;48.272;25.926;2023-06-05T04:54:51;3.65;;;2.33;;
26750;SDS011;14345;48.272;25.926;2023-06-05T04:57:17;3.70;;;2.40;;
26750;SDS011;14345;48.272;25.926;2023-06-05T04:59:44;10.13;;;2.70;;
26750;SDS011;14345;48.272;25.926;2023-06-05T05:02:10;5.35;;;2.30;;
26750;SDS011;14345;48.272;25.926;2023-06-05T05:04:36;5.60;;;2.50;;
26750;SDS011;14345;48.272;25.926;2023-06-05T05:07:03;6.07;;;2.80;;
26750;SDS011;14345;48.272;25.926;2023-06-05T05:09:30;10.02;;;6.25;;
26750;SDS011;14345;48.272;25.926;2023-06-05T05:11:57;9.23;;;7.10;;
26750;SDS011;14345;48.272;25.926;2023-06-05T05:14:26;14.75;;;6.25;;
26750;SDS011;14345;48.272;25.926;2023-06-05T05:16:52;9.00;;;5.25;;
26750;SDS011;14345;48.272;25.926;2023-06-05T05:19:20;8.18;;;5.28;;
26750;SDS011;14345;48.272;25.926;2023-06-05T05:21:47;8.60;;;5.40;;
26750;SDS011;14345;48.272;25.926;2023-06-05T05:24:13;7.35;;;3.75;;
26750;SDS011;14345;48.272;25.926;2023-06-05T05:26:39;6.68;;;2.70;;
26750;SDS011;14345;48.272;25.926;2023-06-05T05:29:06;3.85;;;2.78;;
26750;SDS011;14345;48.272;25.926;2023-06-05T05:31:32;6.35;;;3.30;;
26750;SDS011;14345;48.272;25.926;2023-06-05T05:33:58;7.10;;;2.80;;
26750;SDS011;14345;48.272;25.926;2023-06-05T05:36:25;5.53;;;2.65;;
26750;SDS011;14345;48.272;25.926;2023-06-05T05:38:54;5.55;;;3.63;;
26750;SDS011;14345;48.272;25.926;2023-06-05T05:41:20;4.72;;;3.08;;
26750;SDS011;14345;48.272;25.926;2023-06-05T05:43:47;7.13;;;3.63;;
26750;SDS011;14345;48.272;25.926;2023-06-05T05:46:13;3.95;;;2.90;;
26750;SDS011;14345;48.272;25.926;2023-06-05T05:48:39;6.32;;;2.90;;
26750;SDS011;14345;48.272;25.926;2023-06-05T05:51:06;5.03;;;3.28;;
26750;SDS011;14345;48.272;25.926;2023-06-05T05:53:32;7.38;;;2.78;;
26750;SDS011;14345;48.272;25.926;2023-06-05T05:55:59;5.32;;;3.00;;
26750;SDS011;14345;48.272;25.926;2023-06-05T05:58:25;8.65;;;3.80;;
26750;SDS011;14345;48.272;25.926;2023-06-05T06:00:51;7.30;;;3.67;;
26750;SDS011;14345;48.272;25.926;2023-06-05T06:03:17;6.32;;;3.50;;
26750;SDS011;14345;48.272;25.926;2023-06-05T06:05:44;4.57;;;3.70;;
26750;SDS011;14345;48.272;25.926;2023-06-05T06:08:11;6.07;;;4.40;;
26750;SDS011;14345;48.272;25.926;2023-06-05T06:10:37;8.23;;;5.28;;
26750;SDS011;14345;48.272;25.926;2023-06-05T06:13:03;9.57;;;6.43;;
26750;SDS011;14345;48.272;25.926;2023-06-05T06:15:31;13.25;;;8.43;;
26750;SDS011;14345;48.272;25.926;2023-06-05T06:17:57;10.57;;;9.02;;
26750;SDS011;14345;48.272;25.926;2023-06-05T06:20:27;13.32;;;9.40;;
26750;SDS011;14345;48.272;25.926;2023-06-05T06:22:53;10.65;;;8.35;;
26750;SDS011;14345;48.272;25.926;2023-06-05T06:25:19;11.50;;;7.00;;
26750;SDS011;14345;48.272;25.926;2023-06-05T06:27:46;13.02;;;8.07;;
26750;SDS011;14345;48.272;25.926;2023-06-05T06:30:13;10.82;;;8.60;;
26750;SDS011;14345;48.272;25.926;2023-06-05T06:32:40;10.63;;;8.07;;
26750;SDS011;14345;48.272;25.926;2023-06-05T06:35:06;10.25;;;7.82;;
26750;SDS011;14345;48.272;25.926;2023-06-05T06:37:33;9.15;;;6.75;;
26750;SDS011;14345;48.272;25.926;2023-06-05T06:39:59;10.40;;;6.45;;
26750;SDS011;14345;48.272;25.926;2023-06-05T06:42:25;9.73;;;6.63;;
26750;SDS011;14345;48.272;25.926;2023-06-05T06:44:54;12.50;;;6.75;;
26750;SDS011;14345;48.272;25.926;2023-06-05T06:47:24;11.57;;;5.80;;
26750;SDS011;14345;48.272;25.926;2023-06-05T06:49:50;11.10;;;5.88;;
26750;SDS011;14345;48.272;25.926;2023-06-05T06:52:17;7.97;;;5.63;;
26750;SDS011;14345;48.272;25.926;2023-06-05T06:54:44;7.80;;;5.28;;
26750;SDS011;14345;48.272;25.926;2023-06-05T06:57:10;9.00;;;5.25;;
26750;SDS011;14345;48.272;25.926;2023-06-05T06:59:37;7.18;;;5.05;;
26750;SDS011;14345;48.272;25.926;2023-06-05T07:04:35;5.22;;;4.15;;
26750;SDS011;14345;48.272;25.926;2023-06-05T07:07:01;6.63;;;3.97;;
26750;SDS011;14345;48.272;25.926;2023-06-05T07:09:27;5.38;;;3.05;;
26750;SDS011;14345;48.272;25.926;2023-06-05T07:11:53;5.68;;;3.50;;
26750;SDS011;14345;48.272;25.926;2023-06-05T07:14:20;4.75;;;2.95;;
26750;SDS011;14345;48.272;25.926;2023-06-05T07:16:46;3.65;;;2.58;;
26750;SDS011;14345;48.272;25.926;2023-06-05T07:19:13;7.50;;;4.80;;
26750;SDS011;14345;48.272;25.926;2023-06-05T07:21:39;7.88;;;3.90;;
26750;SDS011;14345;48.272;25.926;2023-06-05T07:24:05;5.57;;;2.60;;
26750;SDS011;14345;48.272;25.926;2023-06-05T07:26:32;5.82;;;2.17;;
26750;SDS011;14345;48.272;25.926;2023-06-05T07:28:59;4.47;;;2.47;;
26750;SDS011;14345;48.272;25.926;2023-06-05T07:31:25;5.43;;;2.17;;
26750;SDS011;14345;48.272;25.926;2023-06-05T07:33:51;3.08;;;2.20;;
26750;SDS011;14345;48.272;25.926;2023-06-05T07:36:17;4.90;;;2.20;;
26750;SDS011;14345;48.272;25.926;2023-06-05T07:38:43;6.93;;;3.58;;
26750;SDS011;14345;48.272;25.926;2023-06-05T07:41:10;5.95;;;2.70;;
26750;SDS011;14345;48.272;25.926;2023-06-05T07:43:37;5.68;;;2.70;;
26750;SDS011;14345;48.272;25.926;2023-06-05T07:46:07;3.85;;;2.20;;
26750;SDS011;14345;48.272;25.926;2023-06-05T07:48:34;5.00;;;2.30;;
26750;SDS011;14345;48.272;25.926;2023-06-05T07:51:00;9.93;;;2.60;;
26750;SDS011;14345;48.272;25.926;2023-06-05T07:53:26;7.10;;;2.10;;
26750;SDS011;14345;48.272;25.926;2023-06-05T07:55:52;5.82;;;2.40;;
26750;SDS011;14345;48.272;25.926;2023-06-05T07:58:18;3.03;;;1.83;;
26750;SDS011;14345;48.272;25.926;2023-06-05T08:00:44;4.80;;;2.45;;
26750;SDS011;14345;48.272;25.926;2023-06-05T08:03:13;3.28;;;2.10;;
26750;SDS011;14345;48.272;25.926;2023-06-05T08:05:45;5.50;;;2.40;;
26750;SDS011;14345;48.272;25.926;2023-06-05T08:08:11;3.85;;;1.90;;
26750;SDS011;14345;48.272;25.926;2023-06-05T08:10:37;4.82;;;2.35;;
26750;SDS011;14345;48.272;25.926;2023-06-05T08:13:03;3.92;;;2.05;;
26750;SDS011;14345;48.272;25.926;2023-06-05T08:15:29;3.30;;;2.10;;
26750;SDS011;14345;48.272;25.926;2023-06-05T08:17:55;4.35;;;2.30;;
26750;SDS011;14345;48.272;25.926;2023-06-05T08:20:21;3.78;;;2.10;;
26750;SDS011;14345;48.272;25.926;2023-06-05T08:22:47;4.38;;;2.20;;
26750;SDS011;14345;48.272;25.926;2023-06-05T08:25:14;8.77;;;3.50;;
26750;SDS011;14345;48.272;25.926;2023-06-05T08:27:40;4.13;;;2.55;;
26750;SDS011;14345;48.272;25.926;2023-06-05T08:30:06;2.30;;;2.10;;
26750;SDS011;14345;48.272;25.926;2023-06-05T08:32:33;8.73;;;2.42;;
26750;SDS011;14345;48.272;25.926;2023-06-05T08:34:59;5.15;;;3.10;;
26750;SDS011;14345;48.272;25.926;2023-06-05T08:37:25;5.18;;;2.67;;
26750;SDS011;14345;48.272;25.926;2023-06-05T08:39:53;6.80;;;2.33;;
26750;SDS011;14345;48.272;25.926;2023-06-05T08:42:24;2.88;;;1.90;;
26750;SDS011;14345;48.272;25.926;2023-06-05T08:44:53;5.80;;;1.98;;
26750;SDS011;14345;48.272;25.926;2023-06-05T08:47:19;7.30;;;2.47;;
26750;SDS011;14345;48.272;25.926;2023-06-05T08:49:47;2.70;;;1.63;;
26750;SDS011;14345;48.272;25.926;2023-06-05T08:52:14;5.45;;;1.85;;
26750;SDS011;14345;48.272;25.926;2023-06-05T08:54:40;5.63;;;1.90;;
26750;SDS011;14345;48.272;25.926;2023-06-05T08:57:07;2.95;;;1.63;;
26750;SDS011;14345;48.272;25.926;2023-06-05T08:59:34;4.65;;;2.00;;
26750;SDS011;14345;48.272;25.926;2023-06-05T09:02:00;3.05;;;1.80;;
26750;SDS011;14345;48.272;25.926;2023-06-05T09:04:26;3.05;;;2.05;;
26750;SDS011;14345;48.272;25.926;2023-06-05T09:06:58;3.72;;;1.77;;
26750;SDS011;14345;48.272;25.926;2023-06-05T09:09:25;5.38;;;2.53;;
26750;SDS011;14345;48.272;25.926;2023-06-05T09:12:01;5.57;;;2.33;;
26750;SDS011;14345;48.272;25.926;2023-06-05T09:14:27;6.97;;;1.75;;
26750;SDS011;14345;48.272;25.926;2023-06-05T09:16:53;6.35;;;1.70;;
26750;SDS011;14345;48.272;25.926;2023-06-05T09:19:19;3.70;;;1.45;;
26750;SDS011;14345;48.272;25.926;2023-06-05T09:21:54;3.00;;;1.60;;
26750;SDS011;14345;48.272;25.926;2023-06-05T09:24:21;9.55;;;4.40;;
26750;SDS011;14345;48.272;25.926;2023-06-05T09:29:31;5.37;;;2.00;;
26750;SDS011;14345;48.272;25.926;2023-06-05T09:31:58;4.13;;;1.90;;
26750;SDS011;14345;48.272;25.926;2023-06-05T09:34:32;3.20;;;1.50;;
26750;SDS011;14345;48.272;25.926;2023-06-05T09:37:02;3.45;;;1.58;;
26750;SDS011;14345;48.272;25.926;2023-06-05T09:39:29;2.53;;;1.40;;
26750;SDS011;14345;48.272;25.926;2023-06-05T09:41:56;2.67;;;1.30;;
26750;SDS011;14345;48.272;25.926;2023-06-05T09:44:22;7.30;;;2.05;;
26750;SDS011;14345;48.272;25.926;2023-06-05T09:46:55;3.38;;;1.45;;
26750;SDS011;14345;48.272;25.926;2023-06-05T09:49:24;2.90;;;1.50;;
26750;SDS011;14345;48.272;25.926;2023-06-05T09:51:50;2.15;;;1.45;;
26750;SDS011;14345;48.272;25.926;2023-06-05T09:54:16;2.70;;;1.30;;
26750;SDS011;14345;48.272;25.926;2023-06-05T09:56:48;2.72;;;1.60;;
26750;SDS011;14345;48.272;25.926;2023-06-05T09:59:21;3.08;;;1.55;;
26750;SDS011;14345;48.272;25.926;2023-06-05T10:01:48;3.17;;;1.35;;
26750;SDS011;14345;48.272;25.926;2023-06-05T10:04:15;3.10;;;1.58;;
26750;SDS011;14345;48.272;25.926;2023-06-05T10:06:42;5.20;;;1.70;;
26750;SDS011;14345;48.272;25.926;2023-06-05T10:09:08;3.80;;;1.65;;
26750;SDS011;14345;48.272;25.926;2023-06-05T10:11:35;2.53;;;1.40;;
26750;SDS011;14345;48.272;25.926;2023-06-05T10:14:01;2.05;;;1.60;;
26750;SDS011;14345;48.272;25.926;2023-06-05T10:16:28;2.65;;;1.40;;
26750;SDS011;14345;48.272;25.926;2023-06-05T10:18:55;2.97;;;1.70;;
26750;SDS011;14345;48.272;25.926;2023-06-05T10:21:22;1.95;;;1.50;;
26750;SDS011;14345;48.272;25.926;2023-06-05T10:24:08;2.30;;;1.50;;
26750;SDS011;14345;48.272;25.926;2023-06-05T10:31:45;2.13;;;1.63;;
26750;SDS011;14345;48.272;25.926;2023-06-05T10:34:17;5.00;;;1.90;;
26750;SDS011;14345;48.272;25.926;2023-06-05T10:39:23;3.35;;;1.50;;
26750;SDS011;14345;48.272;25.926;2023-06-05T10:41:51;3.80;;;1.95;;
26750;SDS011;14345;48.272;25.926;2023-06-05T10:44:17;1.95;;;1.50;;
26750;SDS011;14345;48.272;25.926;2023-06-05T10:46:43;3.83;;;1.88;;
26750;SDS011;14345;48.272;25.926;2023-06-05T10:51:41;4.30;;;1.20;;
26750;SDS011;14345;48.272;25.926;2023-06-05T10:54:09;1.60;;;1.45;;
26750;SDS011;14345;48.272;25.926;2023-06-05T10:59:33;1.90;;;1.05;;
26750;SDS011;14345;48.272;25.926;2023-06-05T11:15:15;3.05;;;1.20;;
26750;SDS011;14345;48.272;25.926;2023-06-05T11:17:43;5.38;;;1.33;;
26750;SDS011;14345;48.272;25.926;2023-06-05T11:27:52;2.00;;;1.10;;
26750;SDS011;14345;48.272;25.926;2023-06-05T11:30:22;1.33;;;1.10;;
26750;SDS011;14345;48.272;25.926;2023-06-05T11:32:50;1.67;;;0.93;;
26750;SDS011;14345;48.272;25.926;2023-06-05T11:35:21;1.65;;;0.80;;
26750;SDS011;14345;48.272;25.926;2023-06-05T11:37:47;1.23;;;1.13;;
26750;SDS011;14345;48.272;25.926;2023-06-05T11:40:23;1.40;;;1.10;;
26750;SDS011;14345;48.272;25.926;2023-06-05T11:42:50;3.08;;;1.50;;
26750;SDS011;14345;48.272;25.926;2023-06-05T11:45:16;2.25;;;1.27;;
26750;SDS011;14345;48.272;25.926;2023-06-05T11:47:42;1.52;;;1.00;;
26750;SDS011;14345;48.272;25.926;2023-06-05T11:50:12;1.50;;;1.00;;
26750;SDS011;14345;48.272;25.926;2023-06-05T11:52:38;3.00;;;1.25;;
26750;SDS011;14345;48.272;25.926;2023-06-05T11:55:14;4.78;;;3.95;;
26750;SDS011;14345;48.272;25.926;2023-06-05T11:57:42;7.18;;;5.88;;
26750;SDS011;14345;48.272;25.926;2023-06-05T12:00:11;2.92;;;2.60;;
26750;SDS011;14345;48.272;25.926;2023-06-05T12:02:38;3.05;;;2.10;;
26750;SDS011;14345;48.272;25.926;2023-06-05T12:05:07;1.88;;;1.60;;
26750;SDS011;14345;48.272;25.926;2023-06-05T12:07:33;2.63;;;1.73;;
26750;SDS011;14345;48.272;25.926;2023-06-05T12:10:04;1.85;;;1.00;;
26750;SDS011;14345;48.272;25.926;2023-06-05T12:12:31;2.03;;;1.40;;
26750;SDS011;14345;48.272;25.926;2023-06-05T12:15:12;2.15;;;1.00;;
26750;SDS011;14345;48.272;25.926;2023-06-05T12:17:38;4.40;;;1.15;;
26750;SDS011;14345;48.272;25.926;2023-06-05T12:20:04;2.65;;;1.10;;
26750;SDS011;14345;48.272;25.926;2023-06-05T12:22:35;2.88;;;1.20;;
26750;SDS011;14345;48.272;25.926;2023-06-05T12:25:19;2.75;;;1.60;;
26750;SDS011;14345;48.272;25.926;2023-06-05T12:27:46;1.50;;;1.08;;
26750;SDS011;14345;48.272;25.926;2023-06-05T12:30:12;2.08;;;1.40;;
26750;SDS011;14345;48.272;25.926;2023-06-05T12:32:40;1.50;;;1.10;;
26750;SDS011;14345;48.272;25.926;2023-06-05T12:35:17;2.10;;;1.20;;
26750;SDS011;14345;48.272;25.926;2023-06-05T12:37:44;2.70;;;1.10;;
26750;SDS011;14345;48.272;25.926;2023-06-05T12:40:12;1.92;;;1.20;;
26750;SDS011;14345;48.272;25.926;2023-06-05T12:42:39;3.17;;;1.27;;
26750;SDS011;14345;48.272;25.926;2023-06-05T12:45:06;4.10;;;1.75;;
26750;SDS011;14345;48.272;25.926;2023-06-05T12:47:35;2.58;;;1.30;;
26750;SDS011;14345;48.272;25.926;2023-06-05T12:50:02;2.00;;;1.30;;
26750;SDS011;14345;48.272;25.926;2023-06-05T12:52:28;2.13;;;1.20;;
26750;SDS011;14345;48.272;25.926;2023-06-05T12:54:54;4.00;;;1.30;;
26750;SDS011;14345;48.272;25.926;2023-06-05T12:57:22;1.52;;;1.00;;
26750;SDS011;14345;48.272;25.926;2023-06-05T12:59:48;3.10;;;1.20;;
26750;SDS011;14345;48.272;25.926;2023-06-05T13:02:15;6.05;;;1.52;;
26750;SDS011;14345;48.272;25.926;2023-06-05T13:04:41;4.68;;;1.48;;
26750;SDS011;14345;48.272;25.926;2023-06-05T13:07:07;2.53;;;1.30;;
26750;SDS011;14345;48.272;25.926;2023-06-05T13:09:33;3.67;;;1.10;;
26750;SDS011;14345;48.272;25.926;2023-06-05T13:12:00;2.20;;;1.15;;
26750;SDS011;14345;48.272;25.926;2023-06-05T13:14:28;3.05;;;1.10;;
26750;SDS011;14345;48.272;25.926;2023-06-05T13:16:55;4.45;;;1.67;;
26750;SDS011;14345;48.272;25.926;2023-06-05T13:19:21;2.78;;;1.48;;
26750;SDS011;14345;48.272;25.926;2023-06-05T13:21:48;2.53;;;1.30;;
26750;SDS011;14345;48.272;25.926;2023-06-05T13:24:14;2.95;;;1.40;;
26750;SDS011;14345;48.272;25.926;2023-06-05T13:26:40;3.85;;;1.70;;
26750;SDS011;14345;48.272;25.926;2023-06-05T13:29:07;5.35;;;2.20;;
26750;SDS011;14345;48.272;25.926;2023-06-05T13:31:34;2.50;;;2.00;;
26750;SDS011;14345;48.272;25.926;2023-06-05T13:34:00;3.88;;;1.40;;
26750;SDS011;14345;48.272;25.926;2023-06-05T13:36:26;1.85;;;1.10;;
26750;SDS011;14345;48.272;25.926;2023-06-05T13:38:53;2.60;;;1.80;;
26750;SDS011;14345;48.272;25.926;2023-06-05T13:41:20;2.67;;;1.85;;
26750;SDS011;14345;48.272;25.926;2023-06-05T13:43:46;6.00;;;2.20;;
26750;SDS011;14345;48.272;25.926;2023-06-05T13:46:13;3.58;;;2.08;;
26750;SDS011;14345;48.272;25.926;2023-06-05T13:48:39;17.52;;;4.30;;
26750;SDS011;14345;48.272;25.926;2023-06-05T13:51:05;13.98;;;2.33;;
26750;SDS011;14345;48.272;25.926;2023-06-05T13:53:31;3.22;;;1.42;;
26750;SDS011;14345;48.272;25.926;2023-06-05T13:56:00;4.40;;;2.00;;
26750;SDS011;14345;48.272;25.926;2023-06-05T13:58:27;2.78;;;1.70;;
26750;SDS011;14345;48.272;25.926;2023-06-05T14:00:53;4.72;;;1.52;;
26750;SDS011;14345;48.272;25.926;2023-06-05T14:03:20;5.60;;;1.80;;
26750;SDS011;14345;48.272;25.926;2023-06-05T14:05:46;4.07;;;1.70;;
26750;SDS011;14345;48.272;25.926;2023-06-05T14:08:12;9.77;;;2.20;;
26750;SDS011;14345;48.272;25.926;2023-06-05T14:10:38;3.63;;;1.35;;
26750;SDS011;14345;48.272;25.926;2023-06-05T14:13:04;5.05;;;1.80;;
26750;SDS011;14345;48.272;25.926;2023-06-05T14:15:31;5.35;;;1.65;;
26750;SDS011;14345;48.272;25.926;2023-06-05T14:17:59;2.42;;;1.35;;
26750;SDS011;14345;48.272;25.926;2023-06-05T14:20:25;6.30;;;4.53;;
26750;SDS011;14345;48.272;25.926;2023-06-05T14:22:51;7.18;;;3.97;;
26750;SDS011;14345;48.272;25.926;2023-06-05T14:25:18;7.78;;;2.20;;
26750;SDS011;14345;48.272;25.926;2023-06-05T14:27:44;6.32;;;2.33;;
26750;SDS011;14345;48.272;25.926;2023-06-05T14:30:10;5.13;;;2.00;;
26750;SDS011;14345;48.272;25.926;2023-06-05T14:32:36;4.93;;;2.13;;
26750;SDS011;14345;48.272;25.926;2023-06-05T14:35:02;56.60;;;5.85;;
26750;SDS011;14345;48.272;25.926;2023-06-05T14:37:28;4.55;;;1.90;;
26750;SDS011;14345;48.272;25.926;2023-06-05T14:39:54;4.25;;;1.20;;
26750;SDS011;14345;48.272;25.926;2023-06-05T14:42:21;2.70;;;1.70;;
26750;SDS011;14345;48.272;25.926;2023-06-05T14:44:48;4.13;;;2.10;;
26750;SDS011;14345;48.272;25.926;2023-06-05T14:47:14;4.28;;;1.67;;
26750;SDS011;14345;48.272;25.926;2023-06-05T14:49:40;5.78;;;1.40;;
26750;SDS011;14345;48.272;25.926;2023-06-05T14:52:07;2.40;;;1.30;;
26750;SDS011;14345;48.272;25.926;2023-06-05T14:54:33;1.70;;;1.25;;
26750;SDS011;14345;48.272;25.926;2023-06-05T14:56:59;2.75;;;1.20;;
26750;SDS011;14345;48.272;25.926;2023-06-05T14:59:25;1.88;;;1.10;;
26750;SDS011;14345;48.272;25.926;2023-06-05T15:01:51;1.80;;;1.65;;
26750;SDS011;14345;48.272;25.926;2023-06-05T15:04:17;3.38;;;2.10;;
26750;SDS011;14345;48.272;25.926;2023-06-05T15:06:43;6.32;;;1.70;;
26750;SDS011;14345;48.272;25.926;2023-06-05T15:09:09;3.20;;;1.38;;
26750;SDS011;14345;48.272;25.926;2023-06-05T15:11:35;7.75;;;1.65;;